createdAt,value
2023-12-10T00:01:18.699Z,30.23
2023-12-10T00:03:46.086Z,21.15
2023-12-10T00:06:14.613Z,34.75
2023-12-10T00:08:42.238Z,27.45
2023-12-10T00:11:09.329Z,26.50
2023-12-10T00:13:36.886Z,27.20
2023-12-10T00:16:04.180Z,25.92
2023-12-10T00:18:31.265Z,21.08
2023-12-10T00:20:58.599Z,23.85
2023-12-10T00:23:25.565Z,18.88
2023-12-10T00:25:52.619Z,42.28
2023-12-10T00:28:19.767Z,22.25
2023-12-10T00:30:48.734Z,25.88
2023-12-10T00:33:17.198Z,21.20
2023-12-10T00:35:44.523Z,18.67
2023-12-10T00:38:11.627Z,21.60
2023-12-10T00:40:39.174Z,28.58
2023-12-10T00:43:06.145Z,27.17
2023-12-10T00:45:33.308Z,27.80
2023-12-10T00:48:00.456Z,25.27
2023-12-10T00:50:27.614Z,23.00
2023-12-10T00:52:54.760Z,21.35
2023-12-10T00:55:21.732Z,23.88
2023-12-10T00:57:48.880Z,22.52
2023-12-10T01:00:16.170Z,19.05
2023-12-10T01:02:43.967Z,24.08
2023-12-10T01:05:11.271Z,27.13
2023-12-10T01:07:38.211Z,20.75
2023-12-10T01:10:08.812Z,17.65
2023-12-10T01:12:38.501Z,25.00
2023-12-10T01:15:06.608Z,25.17
2023-12-10T01:17:34.347Z,19.20
2023-12-10T01:20:01.901Z,22.75
2023-12-10T01:22:30.484Z,35.75
2023-12-10T01:24:59.108Z,29.88
2023-12-10T01:27:26.260Z,26.20
2023-12-10T01:29:53.854Z,23.58
2023-12-10T01:32:21.951Z,23.42
2023-12-10T01:34:49.525Z,18.05
2023-12-10T01:37:16.700Z,21.55
2023-12-10T01:39:43.881Z,29.33
2023-12-10T01:42:10.841Z,20.85
2023-12-10T01:44:37.856Z,29.83
2023-12-10T01:47:05.618Z,25.00
2023-12-10T01:49:32.874Z,26.98
2023-12-10T01:51:59.821Z,29.35
2023-12-10T01:54:27.391Z,31.00
2023-12-10T01:57:06.077Z,20.55
2023-12-10T01:59:36.314Z,20.85
2023-12-10T02:02:04.573Z,24.63
2023-12-10T02:04:31.844Z,28.33
2023-12-10T02:06:59.075Z,27.35
2023-12-10T02:09:25.977Z,24.55
2023-12-10T02:11:54.122Z,25.17
2023-12-10T02:14:21.271Z,21.80
2023-12-10T02:16:48.360Z,37.20
2023-12-10T02:19:15.622Z,14.60
2023-12-10T02:21:47.288Z,38.38
2023-12-10T02:24:18.061Z,31.02
2023-12-10T02:26:45.378Z,30.83
2023-12-10T02:29:12.680Z,30.50
2023-12-10T02:31:39.822Z,29.73
2023-12-10T02:34:07.384Z,23.67
2023-12-10T02:36:34.632Z,27.88
2023-12-10T02:39:01.592Z,29.85
2023-12-10T02:41:28.732Z,30.15
2023-12-10T02:43:55.691Z,23.23
2023-12-10T02:46:22.677Z,19.38
2023-12-10T02:48:51.191Z,26.95
2023-12-10T02:51:18.567Z,39.42
2023-12-10T02:53:45.610Z,33.60
2023-12-10T02:56:12.600Z,29.48
2023-12-10T02:58:39.719Z,28.00
2023-12-10T03:01:06.887Z,16.30
2023-12-10T03:03:34.277Z,27.92
2023-12-10T03:06:01.647Z,33.90
2023-12-10T03:08:28.673Z,36.55
2023-12-10T03:10:55.669Z,17.58
2023-12-10T03:13:22.818Z,17.05
2023-12-10T03:15:49.772Z,29.25
2023-12-10T03:18:17.061Z,29.10
2023-12-10T03:20:44.333Z,28.30
2023-12-10T03:23:11.314Z,35.33
2023-12-10T03:25:38.313Z,30.23
2023-12-10T03:28:05.571Z,27.92
2023-12-10T03:30:32.579Z,38.03
2023-12-10T03:32:59.623Z,35.50
2023-12-10T03:35:26.607Z,24.67
2023-12-10T03:37:54.018Z,24.70
2023-12-10T03:40:21.269Z,37.58
2023-12-10T03:42:48.555Z,23.73
2023-12-10T03:45:16.147Z,34.42
2023-12-10T03:47:48.167Z,25.77
2023-12-10T03:50:16.888Z,31.02
2023-12-10T03:52:44.321Z,35.67
2023-12-10T03:55:11.545Z,48.15
2023-12-10T03:57:38.672Z,26.95
2023-12-10T04:00:06.462Z,28.88
2023-12-10T04:02:33.624Z,41.97
2023-12-10T04:05:00.640Z,26.30
2023-12-10T04:07:27.776Z,40.53
2023-12-10T04:09:54.724Z,32.60
2023-12-10T04:12:21.794Z,34.10
2023-12-10T04:14:48.776Z,21.70
2023-12-10T04:17:16.976Z,29.80
2023-12-10T04:19:44.234Z,23.38
2023-12-10T04:22:11.533Z,30.23
2023-12-10T04:24:38.710Z,35.95
2023-12-10T04:27:06.092Z,32.83
2023-12-10T04:29:33.200Z,25.90
2023-12-10T04:32:00.186Z,39.22
2023-12-10T04:34:27.253Z,32.13
2023-12-10T04:36:54.447Z,27.55
2023-12-10T04:39:21.857Z,26.95
2023-12-10T04:41:49.551Z,27.45
2023-12-10T04:44:16.630Z,34.20
2023-12-10T04:46:43.621Z,21.42
2023-12-10T04:49:10.891Z,28.23
2023-12-10T04:51:38.265Z,26.10
2023-12-10T04:54:05.350Z,24.50
2023-12-10T04:56:32.365Z,29.52
2023-12-10T04:58:59.262Z,30.50
2023-12-10T05:01:26.639Z,18.08
2023-12-10T05:03:53.979Z,20.35
2023-12-10T05:06:21.298Z,25.33
2023-12-10T05:08:48.322Z,31.15
2023-12-10T05:11:15.233Z,28.25
2023-12-10T05:13:42.228Z,22.63
2023-12-10T05:16:09.612Z,31.75
2023-12-10T05:18:36.860Z,27.60
2023-12-10T05:21:04.073Z,33.55
2023-12-10T05:23:30.970Z,39.70
2023-12-10T05:25:58.120Z,27.90
2023-12-10T05:28:25.219Z,26.63
2023-12-10T05:30:52.252Z,21.10
2023-12-10T05:33:19.310Z,21.48
2023-12-10T05:35:46.268Z,22.10
2023-12-10T05:38:13.465Z,29.42
2023-12-10T05:40:40.358Z,23.00
2023-12-10T05:43:07.597Z,38.30
2023-12-10T05:45:34.911Z,28.20
2023-12-10T05:48:01.996Z,25.58
2023-12-10T05:50:28.910Z,30.52
2023-12-10T05:52:56.164Z,23.20
2023-12-10T05:55:23.157Z,28.27
2023-12-10T05:57:50.265Z,32.95
2023-12-10T06:00:17.804Z,28.27
2023-12-10T06:02:45.071Z,30.65
2023-12-10T06:05:12.692Z,29.70
2023-12-10T06:07:40.546Z,24.08
2023-12-10T06:10:08.754Z,23.52
2023-12-10T06:12:36.193Z,38.90
2023-12-10T06:15:03.232Z,47.35
2023-12-10T06:17:30.258Z,16.33
2023-12-10T06:19:57.274Z,33.25
2023-12-10T06:22:24.657Z,25.48
2023-12-10T06:24:52.779Z,19.83
2023-12-10T06:27:20.040Z,28.75
2023-12-10T06:29:47.231Z,29.80
2023-12-10T06:32:14.155Z,32.30
2023-12-10T06:34:41.251Z,27.17
2023-12-10T06:37:08.324Z,30.27
2023-12-10T06:39:35.338Z,29.63
2023-12-10T06:42:02.705Z,20.95
2023-12-10T06:44:29.807Z,26.90
2023-12-10T06:46:56.848Z,24.33
2023-12-10T06:49:24.413Z,33.45
2023-12-10T06:51:51.906Z,27.73
2023-12-10T06:54:19.232Z,24.27
2023-12-10T06:56:46.197Z,36.38
2023-12-10T06:59:13.322Z,22.17
2023-12-10T07:01:40.497Z,28.92
2023-12-10T07:04:09.534Z,26.00
2023-12-10T07:06:37.056Z,27.58
2023-12-10T07:09:07.972Z,25.83
2023-12-10T07:11:35.077Z,36.60
2023-12-10T07:14:02.185Z,22.17
2023-12-10T07:16:29.368Z,26.05
2023-12-10T07:18:56.870Z,33.50
2023-12-10T07:21:24.280Z,30.42
2023-12-10T07:23:51.542Z,30.35
2023-12-10T07:26:25.871Z,36.03
2023-12-10T07:28:53.421Z,29.13
2023-12-10T07:31:20.522Z,25.80
2023-12-10T07:33:47.774Z,27.17
2023-12-10T07:36:15.511Z,33.30
2023-12-10T07:38:42.710Z,17.20
2023-12-10T07:41:10.070Z,28.73
2023-12-10T07:43:37.450Z,27.27
2023-12-10T07:46:04.702Z,38.33
2023-12-10T07:48:32.092Z,40.72
2023-12-10T07:51:00.149Z,27.73
2023-12-10T07:53:28.507Z,35.83
2023-12-10T07:55:55.511Z,35.75
2023-12-10T07:58:23.495Z,32.13
2023-12-10T08:00:51.138Z,20.92
2023-12-10T08:03:18.594Z,44.85
2023-12-10T08:05:47.462Z,31.60
2023-12-10T08:08:14.427Z,21.02
2023-12-10T08:10:41.471Z,39.88
2023-12-10T08:13:08.640Z,28.48
2023-12-10T08:15:35.625Z,28.13
2023-12-10T08:18:02.801Z,29.80
2023-12-10T08:20:30.206Z,39.20
2023-12-10T08:22:57.489Z,39.05
2023-12-10T08:25:24.688Z,35.78
2023-12-10T08:27:52.187Z,35.33
2023-12-10T08:30:19.253Z,34.70
2023-12-10T08:32:46.570Z,45.63
2023-12-10T08:35:13.571Z,45.78
2023-12-10T08:37:41.433Z,49.85
2023-12-10T08:40:08.720Z,40.97
2023-12-10T08:42:36.061Z,45.95
2023-12-10T08:45:03.010Z,45.78
2023-12-10T08:47:30.224Z,60.55
2023-12-10T08:49:57.645Z,36.33
2023-12-10T08:52:24.718Z,36.58
2023-12-10T08:54:52.109Z,34.58
2023-12-10T08:57:19.273Z,42.10
2023-12-10T08:59:47.365Z,36.22
2023-12-10T09:02:14.581Z,35.55
2023-12-10T09:04:41.879Z,47.70
2023-12-10T09:07:08.878Z,43.10
2023-12-10T09:09:36.139Z,36.13
2023-12-10T09:12:03.537Z,44.17
2023-12-10T09:14:30.579Z,39.50
2023-12-10T09:16:57.888Z,42.80
2023-12-10T09:19:26.831Z,40.92
2023-12-10T09:21:54.167Z,30.13
2023-12-10T09:24:22.086Z,35.47
2023-12-10T09:26:50.423Z,41.60
2023-12-10T09:29:18.141Z,44.35
2023-12-10T09:31:45.092Z,41.33
2023-12-10T09:34:12.592Z,46.33
2023-12-10T09:36:39.793Z,47.83
2023-12-10T09:39:07.159Z,37.63
2023-12-10T09:41:34.154Z,40.97
2023-12-10T09:44:01.334Z,37.97
2023-12-10T09:46:31.556Z,42.78
2023-12-10T09:48:59.539Z,38.13
2023-12-10T09:51:26.867Z,41.00
2023-12-10T09:53:53.746Z,47.13
2023-12-10T09:56:20.955Z,36.67
2023-12-10T09:58:48.356Z,42.53
2023-12-10T10:01:15.521Z,48.00
2023-12-10T10:03:42.774Z,28.52
2023-12-10T10:06:10.828Z,37.45
2023-12-10T10:08:38.214Z,38.53
2023-12-10T10:11:05.390Z,29.27
2023-12-10T10:13:32.464Z,31.88
2023-12-10T10:16:10.248Z,48.83
2023-12-10T10:18:42.845Z,35.22
2023-12-10T10:21:11.094Z,31.52
2023-12-10T10:23:38.137Z,33.92
2023-12-10T10:26:05.291Z,40.60
2023-12-10T10:28:34.497Z,38.65
2023-12-10T10:31:02.744Z,33.15
2023-12-10T10:33:30.359Z,37.95
2023-12-10T10:36:00.580Z,30.88
2023-12-10T10:38:30.337Z,50.80
2023-12-10T10:43:26.612Z,38.75
2023-12-10T10:45:57.691Z,39.78
2023-12-10T10:48:27.473Z,28.70
2023-12-10T10:50:56.176Z,30.20
2023-12-10T10:53:24.373Z,31.15
2023-12-10T10:55:52.487Z,38.35
2023-12-10T10:58:29.703Z,32.63
2023-12-10T11:01:00.709Z,40.22
2023-12-10T11:03:28.608Z,33.30
2023-12-10T11:05:58.518Z,32.83
2023-12-10T11:11:02.794Z,23.08
2023-12-10T11:13:48.479Z,40.35
2023-12-10T11:16:15.942Z,40.05
2023-12-10T11:18:55.538Z,31.58
2023-12-10T11:23:50.142Z,39.50
2023-12-10T11:26:17.142Z,30.35
2023-12-10T11:28:44.648Z,28.20
2023-12-10T11:31:11.895Z,35.38
2023-12-10T11:33:43.427Z,47.10
2023-12-10T11:36:33.451Z,21.00
2023-12-10T11:39:01.447Z,20.98
2023-12-10T11:41:29.740Z,27.25
2023-12-10T11:43:56.736Z,31.40
2023-12-10T11:46:31.910Z,23.00
2023-12-10T11:49:07.795Z,20.67
2023-12-10T11:51:39.568Z,26.80
2023-12-10T11:54:10.834Z,23.30
2023-12-10T11:56:37.845Z,27.50
2023-12-10T11:59:11.439Z,37.65
2023-12-10T12:01:39.835Z,28.05
2023-12-10T12:04:07.361Z,28.85
2023-12-10T12:06:40.483Z,22.23
2023-12-10T12:09:08.081Z,27.27
2023-12-10T12:11:35.391Z,32.58
2023-12-10T12:14:03.717Z,23.13
2023-12-10T12:16:30.938Z,24.40
2023-12-10T12:18:58.249Z,23.17
2023-12-10T12:21:25.480Z,18.80
2023-12-10T12:23:52.463Z,21.15
2023-12-10T12:26:19.592Z,18.42
2023-12-10T12:28:48.708Z,22.90
2023-12-10T12:31:16.173Z,23.13
2023-12-10T12:33:43.432Z,25.80
2023-12-10T12:36:10.708Z,29.33
2023-12-10T12:38:37.633Z,21.88
2023-12-10T12:41:04.732Z,24.20
2023-12-10T12:43:32.319Z,35.47
2023-12-10T12:45:59.745Z,21.83
2023-12-10T12:48:27.225Z,30.70
2023-12-10T12:50:54.509Z,25.52
2023-12-10T12:53:21.557Z,24.95
2023-12-10T12:55:48.703Z,32.15
2023-12-10T12:58:16.927Z,38.28
2023-12-10T13:00:43.891Z,15.57
2023-12-10T13:03:11.136Z,21.25
2023-12-10T13:05:38.478Z,23.52
2023-12-10T13:08:05.713Z,30.55
2023-12-10T13:10:33.445Z,25.67
2023-12-10T13:13:00.548Z,23.90
2023-12-10T13:15:27.573Z,27.02
2023-12-10T13:17:54.563Z,27.98
2023-12-10T13:20:21.686Z,27.00
2023-12-10T13:22:48.550Z,14.48
2023-12-10T13:25:16.038Z,21.85
2023-12-10T13:27:43.177Z,23.02
2023-12-10T13:30:10.696Z,25.27
2023-12-10T13:32:38.349Z,24.67
2023-12-10T13:35:05.759Z,18.27
2023-12-10T13:37:33.135Z,18.50
2023-12-10T13:40:00.917Z,25.13
2023-12-10T13:42:28.187Z,26.17
2023-12-10T13:44:55.451Z,32.10
2023-12-10T13:47:22.306Z,15.13
2023-12-10T13:49:50.308Z,27.25
2023-12-10T13:52:17.234Z,16.90
2023-12-10T13:54:44.222Z,14.90
2023-12-10T13:57:11.516Z,24.08
2023-12-10T13:59:38.920Z,15.80
2023-12-10T14:02:08.480Z,28.10
2023-12-10T14:04:35.478Z,31.33
2023-12-10T14:07:03.358Z,26.65
2023-12-10T14:09:30.429Z,20.80
2023-12-10T14:11:57.783Z,22.02
2023-12-10T14:14:24.947Z,15.32
2023-12-10T14:16:53.376Z,19.48
2023-12-10T14:19:20.880Z,13.02
2023-12-10T14:21:48.048Z,15.88
2023-12-10T14:24:15.303Z,17.65
2023-12-10T14:26:42.650Z,19.77
2023-12-10T14:29:09.649Z,14.25
2023-12-10T14:31:36.700Z,12.77
2023-12-10T14:34:03.977Z,24.02
2023-12-10T14:36:31.262Z,16.58
2023-12-10T14:38:58.865Z,18.17
2023-12-10T14:41:26.134Z,12.40
2023-12-10T14:43:53.207Z,23.55
2023-12-10T14:46:20.902Z,18.52
2023-12-10T14:48:48.093Z,12.32
2023-12-10T14:51:15.084Z,14.60
2023-12-10T14:53:42.380Z,17.67
2023-12-10T14:56:10.001Z,13.90
2023-12-10T14:58:36.991Z,23.70
2023-12-10T15:01:05.067Z,21.02
2023-12-10T15:03:32.507Z,21.67
2023-12-10T15:05:59.846Z,16.75
2023-12-10T15:08:27.036Z,15.35
2023-12-10T15:10:54.045Z,18.05
2023-12-10T15:13:21.560Z,17.65
2023-12-10T15:15:48.932Z,16.63
2023-12-10T15:18:16.045Z,23.77
2023-12-10T15:20:43.902Z,16.30
2023-12-10T15:23:11.200Z,13.80
2023-12-10T15:25:38.408Z,18.75
2023-12-10T15:28:05.955Z,18.23
2023-12-10T15:30:36.004Z,13.07
2023-12-10T15:33:04.806Z,15.25
2023-12-10T15:35:31.855Z,19.42
2023-12-10T15:37:58.882Z,22.00
2023-12-10T15:40:25.881Z,23.15
2023-12-10T15:42:53.106Z,17.23
2023-12-10T15:45:21.388Z,17.45
2023-12-10T15:47:49.504Z,22.30
2023-12-10T15:50:16.814Z,22.95
2023-12-10T15:52:44.175Z,13.35
2023-12-10T15:55:12.006Z,23.20
2023-12-10T15:57:40.131Z,16.80
2023-12-10T16:02:44.410Z,20.23
2023-12-10T16:05:11.442Z,12.73
2023-12-10T16:07:48.264Z,14.43
2023-12-10T16:12:45.814Z,24.05
2023-12-10T16:15:13.125Z,27.45
2023-12-10T16:17:40.189Z,23.67
2023-12-10T16:20:08.266Z,21.98
2023-12-10T16:22:35.482Z,13.88
2023-12-10T16:25:02.568Z,22.35
2023-12-10T16:27:29.801Z,20.30
2023-12-10T16:29:57.041Z,4.45
2023-12-10T16:32:24.081Z,15.15
2023-12-10T16:34:51.370Z,12.70
2023-12-10T16:37:19.277Z,8.13
2023-12-10T16:39:48.506Z,17.15
2023-12-10T16:42:15.540Z,16.00
2023-12-10T16:44:42.679Z,9.15
2023-12-10T16:47:10.341Z,8.82
2023-12-10T16:49:37.613Z,7.32
2023-12-10T16:52:05.073Z,4.47
2023-12-10T16:54:32.141Z,8.30
2023-12-10T16:56:59.105Z,11.77
2023-12-10T16:59:26.040Z,9.02
2023-12-10T17:01:54.699Z,8.73
2023-12-10T17:04:22.086Z,13.52
2023-12-10T17:06:49.372Z,10.80
2023-12-10T17:09:16.383Z,5.30
2023-12-10T17:11:43.367Z,8.00
2023-12-10T17:14:10.518Z,10.25
2023-12-10T17:16:37.532Z,11.32
2023-12-10T17:19:04.689Z,7.95
2023-12-10T17:21:32.106Z,7.53
2023-12-10T17:23:59.081Z,5.88
2023-12-10T17:26:26.077Z,5.25
2023-12-10T17:28:53.308Z,12.40
2023-12-10T17:31:20.638Z,5.18
2023-12-10T17:33:47.823Z,7.43
2023-12-10T17:36:15.141Z,5.97
2023-12-10T17:38:42.136Z,5.30
2023-12-10T17:41:09.245Z,5.30
2023-12-10T17:43:36.440Z,6.40
2023-12-10T17:46:04.142Z,2.78
2023-12-10T17:48:31.398Z,8.30
2023-12-10T17:51:06.579Z,6.63
2023-12-10T17:53:41.197Z,5.97
2023-12-10T17:56:09.560Z,5.80
2023-12-10T17:58:36.484Z,12.55
2023-12-10T18:01:03.516Z,4.55
2023-12-10T18:03:30.757Z,9.07
2023-12-10T18:05:57.686Z,4.97
2023-12-10T18:08:24.756Z,9.05
2023-12-10T18:10:51.836Z,6.18
2023-12-10T18:13:19.294Z,7.80
2023-12-10T18:15:48.955Z,11.48
2023-12-10T18:18:16.317Z,4.07
2023-12-10T18:20:43.614Z,6.38
2023-12-10T18:23:10.749Z,5.13
2023-12-10T18:25:37.864Z,7.57
2023-12-10T18:28:05.301Z,5.68
2023-12-10T18:30:32.775Z,4.22
2023-12-10T18:33:00.042Z,8.48
2023-12-10T18:35:28.014Z,6.00
2023-12-10T18:37:55.149Z,3.83
2023-12-10T18:40:23.377Z,7.68
2023-12-10T18:42:50.526Z,4.95
2023-12-10T18:45:17.534Z,8.85
2023-12-10T18:47:44.493Z,13.27
2023-12-10T18:50:11.559Z,6.57
2023-12-10T18:52:38.665Z,8.70
2023-12-10T18:55:06.513Z,17.65
2023-12-10T18:57:34.385Z,5.25
2023-12-10T19:00:03.100Z,12.45
2023-12-10T19:02:30.113Z,4.70
2023-12-10T19:04:57.192Z,5.40
2023-12-10T19:07:24.393Z,13.05
2023-12-10T19:09:52.241Z,8.77
2023-12-10T19:12:20.457Z,5.65
2023-12-10T19:14:47.754Z,3.03
2023-12-10T19:17:14.887Z,13.80
2023-12-10T19:19:42.140Z,9.18
2023-12-10T19:22:09.315Z,5.82
2023-12-10T19:24:36.735Z,4.80
2023-12-10T19:27:04.362Z,5.07
2023-12-10T19:29:32.914Z,8.73
2023-12-10T19:31:59.969Z,7.32
2023-12-10T19:34:28.454Z,3.95
2023-12-10T19:36:55.772Z,5.15
2023-12-10T19:39:22.809Z,2.70
2023-12-10T19:41:50.116Z,7.25
2023-12-10T19:44:19.224Z,5.32
2023-12-10T19:46:46.323Z,7.43
2023-12-10T19:49:13.451Z,8.10
2023-12-10T19:51:40.441Z,10.45
2023-12-10T19:54:07.571Z,6.82
2023-12-10T19:56:34.931Z,5.95
2023-12-10T19:59:02.080Z,8.75
2023-12-10T20:01:29.062Z,5.35
2023-12-10T20:03:56.489Z,5.72
2023-12-10T20:06:23.597Z,7.22
2023-12-10T20:08:52.325Z,11.77
2023-12-10T20:11:19.376Z,13.43
2023-12-10T20:13:46.501Z,9.32
2023-12-10T20:16:13.925Z,9.25
2023-12-10T20:18:40.930Z,13.98
2023-12-10T20:21:09.161Z,12.05
2023-12-10T20:23:36.209Z,15.40
2023-12-10T20:26:03.360Z,9.25
2023-12-10T20:28:31.841Z,15.82
2023-12-10T20:30:58.727Z,10.48
2023-12-10T20:33:27.355Z,13.45
2023-12-10T20:35:54.661Z,12.32
2023-12-10T20:38:21.780Z,22.58
2023-12-10T20:40:50.614Z,23.83
2023-12-10T20:43:19.053Z,22.73
2023-12-10T20:45:46.354Z,20.67
2023-12-10T20:48:13.885Z,23.15
2023-12-10T20:50:41.215Z,23.55
2023-12-10T20:53:08.521Z,33.45
2023-12-10T20:55:35.620Z,22.00
2023-12-10T20:58:02.652Z,26.38
2023-12-10T21:00:34.555Z,29.30
2023-12-10T21:03:03.945Z,27.20
2023-12-10T21:05:31.177Z,27.73
2023-12-10T21:07:58.173Z,24.25
2023-12-10T21:10:25.299Z,37.75
2023-12-10T21:12:54.418Z,25.58
2023-12-10T21:15:21.492Z,35.30
2023-12-10T21:17:48.706Z,30.45
2023-12-10T21:20:15.929Z,32.75
2023-12-10T21:22:42.858Z,39.10
2023-12-10T21:25:12.346Z,33.45
2023-12-10T21:27:41.569Z,37.47
2023-12-10T21:30:09.751Z,33.33
2023-12-10T21:32:36.992Z,43.13
2023-12-10T21:35:04.585Z,30.90
2023-12-10T21:37:31.977Z,31.77
2023-12-10T21:40:00.443Z,34.92
2023-12-10T21:42:27.810Z,50.55
2023-12-10T21:44:56.337Z,42.03
2023-12-10T21:47:23.824Z,23.25
2023-12-10T21:49:51.265Z,37.45
2023-12-10T21:52:18.667Z,53.08
2023-12-10T21:54:47.345Z,46.47
2023-12-10T21:59:43.030Z,36.47
2023-12-10T22:02:10.015Z,38.03
2023-12-10T22:04:37.664Z,36.63
2023-12-10T22:07:05.083Z,49.50
2023-12-10T22:09:32.083Z,38.90
2023-12-10T22:11:59.145Z,37.35
2023-12-10T22:14:26.281Z,29.95
2023-12-10T22:16:53.597Z,34.50
2023-12-10T22:19:21.009Z,36.83
2023-12-10T22:21:48.296Z,30.27
2023-12-10T22:24:15.663Z,37.10
2023-12-10T22:26:42.558Z,32.00
2023-12-10T22:29:09.632Z,44.20
2023-12-10T22:31:36.773Z,32.90
2023-12-10T22:34:04.329Z,46.58
2023-12-10T22:36:33.228Z,48.55
2023-12-10T22:39:00.262Z,25.53
2023-12-10T22:41:27.410Z,45.83
2023-12-10T22:43:55.995Z,39.30
2023-12-10T22:46:23.040Z,35.55
2023-12-10T22:48:50.673Z,40.42
2023-12-10T22:51:18.224Z,36.33
2023-12-10T22:53:45.449Z,33.45
2023-12-10T22:56:12.557Z,53.38
2023-12-10T22:58:39.473Z,28.50
2023-12-10T23:01:06.889Z,38.03
2023-12-10T23:03:34.178Z,27.92
2023-12-10T23:06:01.475Z,35.55
2023-12-10T23:08:28.530Z,26.13
2023-12-10T23:10:55.662Z,34.13
2023-12-10T23:13:22.730Z,25.23
2023-12-10T23:16:10.557Z,33.10
2023-12-10T23:18:38.758Z,33.65
2023-12-10T23:21:06.448Z,38.78
2023-12-10T23:23:35.208Z,47.88
2023-12-10T23:26:03.497Z,39.08
2023-12-10T23:28:30.867Z,39.92
2023-12-10T23:30:57.956Z,36.13
2023-12-10T23:33:25.360Z,31.13
2023-12-10T23:35:52.347Z,41.42
2023-12-10T23:38:19.421Z,34.97
2023-12-10T23:40:46.622Z,39.28
2023-12-10T23:43:14.285Z,24.70
2023-12-10T23:45:41.475Z,45.05
2023-12-10T23:48:08.835Z,39.05
2023-12-10T23:50:35.736Z,34.97
2023-12-10T23:53:03.027Z,25.92
2023-12-10T23:55:32.298Z,32.55
2023-12-10T23:57:59.640Z,38.70
